sensor_id;sensor_type;location;lat;lon;timestamp;pressure;altitude;pressure_sealevel;temperature;humidity
67740;BME280;54536;50.090;14.420;2022-12-04T00:01:09;99623.13;;;7.01;69.56
67740;BME280;54536;50.090;14.420;2022-12-04T00:03:36;99623.72;;;7.05;69.70
67740;BME280;54536;50.090;14.420;2022-12-04T00:06:08;99626.78;;;6.99;69.62
67740;BME280;54536;50.090;14.420;2022-12-04T00:08:34;99627.94;;;6.95;69.53
67740;BME280;54536;50.090;14.420;2022-12-04T00:11:02;99625.25;;;6.84;70.30
67740;BME280;54536;50.090;14.420;2022-12-04T00:13:29;99627.09;;;6.94;69.18
67740;BME280;54536;50.090;14.420;2022-12-04T00:15:55;99626.50;;;6.91;69.55
67740;BME280;54536;50.090;14.420;2022-12-04T00:18:20;99631.16;;;6.98;70.06
67740;BME280;54536;50.090;14.420;2022-12-04T00:20:47;99629.78;;;7.06;69.47
67740;BME280;54536;50.090;14.420;2022-12-04T00:23:13;99632.84;;;6.99;69.58
67740;BME280;54536;50.090;14.420;2022-12-04T00:25:39;99627.91;;;7.08;69.03
67740;BME280;54536;50.090;14.420;2022-12-04T00:28:05;99621.66;;;6.97;69.61
67740;BME280;54536;50.090;14.420;2022-12-04T00:30:31;99617.47;;;7.08;69.80
67740;BME280;54536;50.090;14.420;2022-12-04T00:32:56;99619.56;;;7.02;69.42
67740;BME280;54536;50.090;14.420;2022-12-04T00:35:22;99618.44;;;6.94;69.22
67740;BME280;54536;50.090;14.420;2022-12-04T00:37:50;99612.88;;;6.98;69.45
67740;BME280;54536;50.090;14.420;2022-12-04T00:40:16;99617.59;;;6.93;69.80
67740;BME280;54536;50.090;14.420;2022-12-04T00:42:42;99611.84;;;6.88;69.34
67740;BME280;54536;50.090;14.420;2022-12-04T00:45:08;99614.50;;;7.12;69.01
67740;BME280;54536;50.090;14.420;2022-12-04T00:47:34;99612.88;;;6.98;69.46
67740;BME280;54536;50.090;14.420;2022-12-04T00:50:00;99609.72;;;7.06;69.24
67740;BME280;54536;50.090;14.420;2022-12-04T00:52:25;99609.63;;;7.08;69.24
67740;BME280;54536;50.090;14.420;2022-12-04T00:54:53;99609.56;;;7.20;68.72
67740;BME280;54536;50.090;14.420;2022-12-04T00:57:19;99601.38;;;7.01;68.89
67740;BME280;54536;50.090;14.420;2022-12-04T00:59:45;99607.97;;;6.94;69.88
67740;BME280;54536;50.090;14.420;2022-12-04T01:02:11;99611.28;;;7.09;68.95
67740;BME280;54536;50.090;14.420;2022-12-04T01:04:37;99600.72;;;7.10;69.02
67740;BME280;54536;50.090;14.420;2022-12-04T01:07:02;99598.72;;;7.14;69.64
67740;BME280;54536;50.090;14.420;2022-12-04T01:09:28;99600.16;;;7.18;68.96
67740;BME280;54536;50.090;14.420;2022-12-04T01:11:54;99593.66;;;7.23;68.48
67740;BME280;54536;50.090;14.420;2022-12-04T01:14:20;99589.88;;;7.27;68.52
67740;BME280;54536;50.090;14.420;2022-12-04T01:16:46;99590.84;;;7.26;68.54
67740;BME280;54536;50.090;14.420;2022-12-04T01:19:12;99590.00;;;7.26;68.18
67740;BME280;54536;50.090;14.420;2022-12-04T01:21:38;99591.22;;;7.33;68.81
67740;BME280;54536;50.090;14.420;2022-12-04T01:24:05;99584.03;;;7.24;68.21
67740;BME280;54536;50.090;14.420;2022-12-04T01:26:31;99588.44;;;7.23;69.03
67740;BME280;54536;50.090;14.420;2022-12-04T01:28:58;99585.81;;;7.23;68.93
67740;BME280;54536;50.090;14.420;2022-12-04T01:31:24;99579.69;;;7.12;68.93
67740;BME280;54536;50.090;14.420;2022-12-04T01:33:50;99578.34;;;7.06;69.85
67740;BME280;54536;50.090;14.420;2022-12-04T01:36:19;99584.06;;;7.11;68.72
67740;BME280;54536;50.090;14.420;2022-12-04T01:38:45;99572.34;;;7.17;69.20
67740;BME280;54536;50.090;14.420;2022-12-04T01:41:14;99574.81;;;7.31;68.90
67740;BME280;54536;50.090;14.420;2022-12-04T01:43:41;99572.97;;;7.20;68.86
67740;BME280;54536;50.090;14.420;2022-12-04T01:46:08;99570.78;;;7.14;68.89
67740;BME280;54536;50.090;14.420;2022-12-04T01:48:49;99567.84;;;7.19;68.36
67740;BME280;54536;50.090;14.420;2022-12-04T01:51:28;99556.06;;;7.13;68.48
67740;BME280;54536;50.090;14.420;2022-12-04T01:53:59;99560.38;;;7.25;68.58
67740;BME280;54536;50.090;14.420;2022-12-04T01:56:31;99557.31;;;7.32;68.82
67740;BME280;54536;50.090;14.420;2022-12-04T01:59:00;99561.69;;;7.20;69.26
67740;BME280;54536;50.090;14.420;2022-12-04T02:01:33;99554.97;;;7.16;68.89
67740;BME280;54536;50.090;14.420;2022-12-04T02:04:01;99559.16;;;7.18;69.39
67740;BME280;54536;50.090;14.420;2022-12-04T02:06:27;99563.00;;;7.25;68.43
67740;BME280;54536;50.090;14.420;2022-12-04T02:08:53;99564.38;;;7.18;69.16
67740;BME280;54536;50.090;14.420;2022-12-04T02:17:24;99559.66;;;7.23;68.10
67740;BME280;54536;50.090;14.420;2022-12-04T02:30:30;99545.19;;;7.31;68.07
67740;BME280;54536;50.090;14.420;2022-12-04T02:33:11;99548.72;;;7.42;68.29
67740;BME280;54536;50.090;14.420;2022-12-04T02:35:45;99544.25;;;7.32;67.88
67740;BME280;54536;50.090;14.420;2022-12-04T02:38:31;99539.53;;;7.37;67.82
67740;BME280;54536;50.090;14.420;2022-12-04T02:41:13;99549.81;;;7.27;67.99
67740;BME280;54536;50.090;14.420;2022-12-04T02:44:28;99539.22;;;7.28;69.26
67740;BME280;54536;50.090;14.420;2022-12-04T02:46:50;99543.09;;;7.36;68.85
67740;BME280;54536;50.090;14.420;2022-12-04T02:49:45;99543.34;;;7.44;68.69
67740;BME280;54536;50.090;14.420;2022-12-04T02:52:15;99540.75;;;7.55;67.83
67740;BME280;54536;50.090;14.420;2022-12-04T02:54:49;99540.16;;;7.51;67.56
67740;BME280;54536;50.090;14.420;2022-12-04T02:57:22;99541.13;;;7.50;67.55
67740;BME280;54536;50.090;14.420;2022-12-04T02:59:52;99549.69;;;7.53;67.93
67740;BME280;54536;50.090;14.420;2022-12-04T03:05:07;99551.50;;;7.63;67.97
67740;BME280;54536;50.090;14.420;2022-12-04T03:07:58;99535.09;;;7.61;68.20
67740;BME280;54536;50.090;14.420;2022-12-04T03:10:45;99542.31;;;7.58;68.12
67740;BME280;54536;50.090;14.420;2022-12-04T03:13:18;99543.81;;;7.73;67.46
67740;BME280;54536;50.090;14.420;2022-12-04T03:16:04;99542.59;;;7.66;67.33
67740;BME280;54536;50.090;14.420;2022-12-04T03:18:47;99537.97;;;7.69;67.24
67740;BME280;54536;50.090;14.420;2022-12-04T03:21:22;99536.19;;;7.70;68.03
67740;BME280;54536;50.090;14.420;2022-12-04T03:23:56;99541.56;;;7.80;67.09
67740;BME280;54536;50.090;14.420;2022-12-04T03:26:32;99547.06;;;7.88;67.71
67740;BME280;54536;50.090;14.420;2022-12-04T03:29:17;99542.31;;;7.82;66.99
67740;BME280;54536;50.090;14.420;2022-12-04T03:31:56;99545.41;;;7.87;66.81
67740;BME280;54536;50.090;14.420;2022-12-04T03:40:10;99536.19;;;7.70;67.59
67740;BME280;54536;50.090;14.420;2022-12-04T03:42:47;99533.44;;;7.71;67.85
67740;BME280;54536;50.090;14.420;2022-12-04T03:45:29;99533.56;;;7.70;67.81
67740;BME280;54536;50.090;14.420;2022-12-04T03:51:07;99533.34;;;7.73;67.64
67740;BME280;54536;50.090;14.420;2022-12-04T03:53:56;99535.28;;;7.82;67.33
67740;BME280;54536;50.090;14.420;2022-12-04T03:56:30;99542.41;;;7.80;67.66
67740;BME280;54536;50.090;14.420;2022-12-04T03:59:13;99545.16;;;7.79;67.39
67740;BME280;54536;50.090;14.420;2022-12-04T04:01:46;99537.78;;;7.84;67.46
67740;BME280;54536;50.090;14.420;2022-12-04T04:04:19;99539.56;;;7.83;67.74
67740;BME280;54536;50.090;14.420;2022-12-04T04:06:53;99539.56;;;7.94;67.50
67740;BME280;54536;50.090;14.420;2022-12-04T04:09:29;99533.63;;;7.92;67.77
67740;BME280;54536;50.090;14.420;2022-12-04T04:12:03;99521.25;;;7.94;67.07
67740;BME280;54536;50.090;14.420;2022-12-04T04:14:44;99523.75;;;7.96;66.84
67740;BME280;54536;50.090;14.420;2022-12-04T04:17:37;99516.88;;;7.95;67.23
67740;BME280;54536;50.090;14.420;2022-12-04T04:20:20;99522.78;;;7.86;67.19
67740;BME280;54536;50.090;14.420;2022-12-04T04:23:10;99513.66;;;7.91;66.87
67740;BME280;54536;50.090;14.420;2022-12-04T04:25:58;99513.03;;;7.88;67.25
67740;BME280;54536;50.090;14.420;2022-12-04T04:28:31;99516.72;;;7.96;67.63
67740;BME280;54536;50.090;14.420;2022-12-04T04:33:38;99506.84;;;8.00;67.48
67740;BME280;54536;50.090;14.420;2022-12-04T04:36:21;99508.66;;;8.11;67.09
67740;BME280;54536;50.090;14.420;2022-12-04T04:38:58;99501.97;;;8.07;66.84
67740;BME280;54536;50.090;14.420;2022-12-04T04:42:12;99495.41;;;7.90;67.21
67740;BME280;54536;50.090;14.420;2022-12-04T04:44:30;99493.53;;;7.92;66.90
67740;BME280;54536;50.090;14.420;2022-12-04T04:47:02;99489.81;;;7.94;67.64
67740;BME280;54536;50.090;14.420;2022-12-04T04:49:33;99481.72;;;7.97;67.21
67740;BME280;54536;50.090;14.420;2022-12-04T04:52:02;99478.41;;;7.95;67.79
67740;BME280;54536;50.090;14.420;2022-12-04T04:54:31;99483.78;;;8.05;67.28
67740;BME280;54536;50.090;14.420;2022-12-04T04:56:58;99494.38;;;8.15;67.33
67740;BME280;54536;50.090;14.420;2022-12-04T04:59:24;99494.75;;;8.21;66.52
67740;BME280;54536;50.090;14.420;2022-12-04T05:01:50;99492.47;;;8.17;66.67
67740;BME280;54536;50.090;14.420;2022-12-04T05:04:16;99490.34;;;8.22;66.79
67740;BME280;54536;50.090;14.420;2022-12-04T05:06:42;99492.13;;;8.21;66.25
67740;BME280;54536;50.090;14.420;2022-12-04T05:09:09;99500.31;;;8.06;67.17
67740;BME280;54536;50.090;14.420;2022-12-04T05:11:34;99507.91;;;7.97;67.30
67740;BME280;54536;50.090;14.420;2022-12-04T05:14:00;99504.13;;;8.02;67.07
67740;BME280;54536;50.090;14.420;2022-12-04T05:16:26;99509.00;;;8.06;66.74
67740;BME280;54536;50.090;14.420;2022-12-04T05:18:52;99505.69;;;8.15;66.50
67740;BME280;54536;50.090;14.420;2022-12-04T05:21:37;99508.53;;;8.24;66.50
67740;BME280;54536;50.090;14.420;2022-12-04T05:24:03;99510.00;;;8.28;66.79
67740;BME280;54536;50.090;14.420;2022-12-04T05:26:29;99509.91;;;8.40;65.90
67740;BME280;54536;50.090;14.420;2022-12-04T05:28:55;99508.94;;;8.41;65.81
67740;BME280;54536;50.090;14.420;2022-12-04T05:31:20;99509.91;;;8.40;66.39
67740;BME280;54536;50.090;14.420;2022-12-04T05:33:47;99501.53;;;8.35;66.19
67740;BME280;54536;50.090;14.420;2022-12-04T05:36:12;99500.84;;;8.44;66.43
67740;BME280;54536;50.090;14.420;2022-12-04T05:38:38;99495.44;;;8.24;67.04
67740;BME280;54536;50.090;14.420;2022-12-04T05:41:05;99490.91;;;8.37;66.46
67740;BME280;54536;50.090;14.420;2022-12-04T05:43:32;99501.38;;;8.37;66.51
67740;BME280;54536;50.090;14.420;2022-12-04T05:46:06;99500.56;;;8.36;66.40
67740;BME280;54536;50.090;14.420;2022-12-04T05:48:34;99501.16;;;8.29;66.94
67740;BME280;54536;50.090;14.420;2022-12-04T05:51:07;99495.94;;;8.29;67.00
67740;BME280;54536;50.090;14.420;2022-12-04T05:53:34;99502.00;;;8.29;67.13
67740;BME280;54536;50.090;14.420;2022-12-04T05:56:01;99511.50;;;8.30;66.63
67740;BME280;54536;50.090;14.420;2022-12-04T05:58:28;99505.09;;;8.34;67.17
67740;BME280;54536;50.090;14.420;2022-12-04T06:00:54;99508.56;;;8.35;66.54
67740;BME280;54536;50.090;14.420;2022-12-04T06:03:20;99508.72;;;8.44;66.62
67740;BME280;54536;50.090;14.420;2022-12-04T06:05:46;99508.44;;;8.36;66.28
67740;BME280;54536;50.090;14.420;2022-12-04T06:08:12;99504.66;;;8.40;67.19
67740;BME280;54536;50.090;14.420;2022-12-04T06:10:38;99521.31;;;8.39;66.49
67740;BME280;54536;50.090;14.420;2022-12-04T06:13:05;99518.94;;;8.48;66.93
67740;BME280;54536;50.090;14.420;2022-12-04T06:15:36;99515.50;;;8.47;66.99
67740;BME280;54536;50.090;14.420;2022-12-04T06:18:03;99511.31;;;8.44;67.02
67740;BME280;54536;50.090;14.420;2022-12-04T06:20:30;99507.50;;;8.49;66.55
67740;BME280;54536;50.090;14.420;2022-12-04T06:22:56;99504.16;;;8.47;66.64
67740;BME280;54536;50.090;14.420;2022-12-04T06:25:22;99511.56;;;8.41;66.31
67740;BME280;54536;50.090;14.420;2022-12-04T06:27:48;99516.09;;;8.51;66.30
67740;BME280;54536;50.090;14.420;2022-12-04T06:30:13;99517.63;;;8.53;66.46
67740;BME280;54536;50.090;14.420;2022-12-04T06:32:39;99514.66;;;8.58;66.02
67740;BME280;54536;50.090;14.420;2022-12-04T06:35:05;99520.13;;;8.55;66.65
67740;BME280;54536;50.090;14.420;2022-12-04T06:37:32;99524.19;;;8.59;66.55
67740;BME280;54536;50.090;14.420;2022-12-04T06:39:58;99523.47;;;8.57;66.06
67740;BME280;54536;50.090;14.420;2022-12-04T06:42:24;99521.56;;;8.59;66.25
67740;BME280;54536;50.090;14.420;2022-12-04T06:44:50;99524.91;;;8.61;66.28
67740;BME280;54536;50.090;14.420;2022-12-04T06:47:17;99527.63;;;8.59;66.13
67740;BME280;54536;50.090;14.420;2022-12-04T06:49:42;99519.78;;;8.71;66.66
67740;BME280;54536;50.090;14.420;2022-12-04T06:52:10;99524.88;;;8.72;65.86
67740;BME280;54536;50.090;14.420;2022-12-04T06:54:36;99530.97;;;8.61;66.23
67740;BME280;54536;50.090;14.420;2022-12-04T06:57:03;99534.91;;;8.67;65.46
67740;BME280;54536;50.090;14.420;2022-12-04T06:59:29;99530.13;;;8.61;66.48
67740;BME280;54536;50.090;14.420;2022-12-04T07:01:55;99520.72;;;8.58;66.04
67740;BME280;54536;50.090;14.420;2022-12-04T07:04:21;99528.09;;;8.53;66.35
67740;BME280;54536;50.090;14.420;2022-12-04T07:06:48;99524.28;;;8.68;66.45
67740;BME280;54536;50.090;14.420;2022-12-04T07:09:16;99528.56;;;8.70;65.84
67740;BME280;54536;50.090;14.420;2022-12-04T07:11:43;99532.16;;;8.68;65.85
67740;BME280;54536;50.090;14.420;2022-12-04T07:14:11;99543.22;;;8.72;65.58
67740;BME280;54536;50.090;14.420;2022-12-04T07:16:39;99536.09;;;8.74;66.28
67740;BME280;54536;50.090;14.420;2022-12-04T07:19:05;99535.72;;;8.67;66.15
67740;BME280;54536;50.090;14.420;2022-12-04T07:21:32;99531.66;;;8.75;66.06
67740;BME280;54536;50.090;14.420;2022-12-04T07:24:00;99535.13;;;8.75;65.95
67740;BME280;54536;50.090;14.420;2022-12-04T07:26:29;99534.66;;;8.70;66.34
67740;BME280;54536;50.090;14.420;2022-12-04T07:28:56;99547.06;;;8.68;65.63
67740;BME280;54536;50.090;14.420;2022-12-04T07:31:25;99535.25;;;8.74;65.82
67740;BME280;54536;50.090;14.420;2022-12-04T07:33:53;99539.88;;;8.81;65.72
67740;BME280;54536;50.090;14.420;2022-12-04T07:36:21;99531.66;;;8.75;65.44
67740;BME280;54536;50.090;14.420;2022-12-04T07:38:48;99535.84;;;8.66;66.09
67740;BME280;54536;50.090;14.420;2022-12-04T07:41:16;99549.78;;;8.78;66.35
67740;BME280;54536;50.090;14.420;2022-12-04T07:43:42;99549.66;;;8.79;66.10
67740;BME280;54536;50.090;14.420;2022-12-04T07:46:18;99547.75;;;8.81;65.97
67740;BME280;54536;50.090;14.420;2022-12-04T07:48:45;99549.28;;;8.73;66.24
67740;BME280;54536;50.090;14.420;2022-12-04T07:51:15;99553.38;;;8.77;65.49
67740;BME280;54536;50.090;14.420;2022-12-04T07:53:43;99551.94;;;8.84;65.99
67740;BME280;54536;50.090;14.420;2022-12-04T07:56:11;99553.13;;;8.80;65.54
67740;BME280;54536;50.090;14.420;2022-12-04T07:58:38;99555.97;;;8.88;65.57
67740;BME280;54536;50.090;14.420;2022-12-04T08:01:09;99546.78;;;8.94;65.37
67740;BME280;54536;50.090;14.420;2022-12-04T08:03:36;99551.19;;;8.82;66.07
67740;BME280;54536;50.090;14.420;2022-12-04T08:06:03;99545.09;;;8.93;65.76
67740;BME280;54536;50.090;14.420;2022-12-04T08:08:29;99548.44;;;8.95;65.77
67740;BME280;54536;50.090;14.420;2022-12-04T08:10:56;99543.91;;;8.97;65.68
67740;BME280;54536;50.090;14.420;2022-12-04T08:13:22;99549.03;;;8.98;65.36
67740;BME280;54536;50.090;14.420;2022-12-04T08:15:48;99555.69;;;9.02;64.70
67740;BME280;54536;50.090;14.420;2022-12-04T08:18:14;99551.53;;;8.88;65.82
67740;BME280;54536;50.090;14.420;2022-12-04T08:20:40;99559.53;;;8.76;66.00
67740;BME280;54536;50.090;14.420;2022-12-04T08:23:05;99544.50;;;8.89;66.14
67740;BME280;54536;50.090;14.420;2022-12-04T08:25:31;99548.56;;;8.93;65.61
67740;BME280;54536;50.090;14.420;2022-12-04T08:27:57;99549.28;;;8.95;65.16
67740;BME280;54536;50.090;14.420;2022-12-04T08:30:23;99546.06;;;9.03;65.57
67740;BME280;54536;50.090;14.420;2022-12-04T08:32:49;99540.13;;;8.89;65.43
67740;BME280;54536;50.090;14.420;2022-12-04T08:35:15;99542.38;;;8.94;65.47
67740;BME280;54536;50.090;14.420;2022-12-04T08:37:41;99547.81;;;9.02;65.11
67740;BME280;54536;50.090;14.420;2022-12-04T08:40:07;99540.56;;;9.06;65.29
67740;BME280;54536;50.090;14.420;2022-12-04T08:42:33;99550.09;;;8.96;65.50
67740;BME280;54536;50.090;14.420;2022-12-04T08:44:59;99551.78;;;8.97;64.93
67740;BME280;54536;50.090;14.420;2022-12-04T08:47:24;99543.19;;;8.95;65.07
67740;BME280;54536;50.090;14.420;2022-12-04T08:49:50;99542.94;;;8.98;65.26
67740;BME280;54536;50.090;14.420;2022-12-04T08:52:17;99546.75;;;9.05;65.44
67740;BME280;54536;50.090;14.420;2022-12-04T08:54:43;99550.34;;;9.04;65.31
67740;BME280;54536;50.090;14.420;2022-12-04T08:57:09;99545.72;;;8.96;65.33
67740;BME280;54536;50.090;14.420;2022-12-04T08:59:36;99545.34;;;9.01;65.75
67740;BME280;54536;50.090;14.420;2022-12-04T09:02:01;99546.50;;;9.08;65.58
67740;BME280;54536;50.090;14.420;2022-12-04T09:04:27;99536.97;;;9.07;65.49
67740;BME280;54536;50.090;14.420;2022-12-04T09:06:53;99537.31;;;9.13;64.87
67740;BME280;54536;50.090;14.420;2022-12-04T09:09:19;99542.06;;;9.20;64.79
67740;BME280;54536;50.090;14.420;2022-12-04T09:11:45;99540.78;;;9.14;65.19
67740;BME280;54536;50.090;14.420;2022-12-04T09:14:11;99542.06;;;9.20;64.42
67740;BME280;54536;50.090;14.420;2022-12-04T09:16:37;99533.28;;;9.09;65.24
67740;BME280;54536;50.090;14.420;2022-12-04T09:19:03;99534.06;;;9.21;64.61
67740;BME280;54536;50.090;14.420;2022-12-04T09:21:29;99535.19;;;9.07;64.84
67740;BME280;54536;50.090;14.420;2022-12-04T09:23:55;99539.31;;;9.21;64.95
67740;BME280;54536;50.090;14.420;2022-12-04T09:26:27;99531.44;;;9.21;64.85
67740;BME280;54536;50.090;14.420;2022-12-04T09:28:55;99527.69;;;9.35;64.51
67740;BME280;54536;50.090;14.420;2022-12-04T09:31:23;99529.47;;;9.34;64.62
67740;BME280;54536;50.090;14.420;2022-12-04T09:33:50;99525.53;;;9.40;64.11
67740;BME280;54536;50.090;14.420;2022-12-04T09:36:17;99531.38;;;9.44;63.88
67740;BME280;54536;50.090;14.420;2022-12-04T09:38:46;99529.47;;;9.46;63.95
67740;BME280;54536;50.090;14.420;2022-12-04T09:47:31;99525.78;;;9.37;64.02
67740;BME280;54536;50.090;14.420;2022-12-04T09:50:10;99524.00;;;9.37;65.50
67740;BME280;54536;50.090;14.420;2022-12-04T09:55:23;99517.59;;;9.51;63.85
67740;BME280;54536;50.090;14.420;2022-12-04T09:57:54;99522.41;;;9.46;64.54
67740;BME280;54536;50.090;14.420;2022-12-04T10:00:22;99520.28;;;9.40;63.88
67740;BME280;54536;50.090;14.420;2022-12-04T10:02:54;99518.00;;;9.47;64.03
67740;BME280;54536;50.090;14.420;2022-12-04T10:10:49;99513.31;;;9.50;64.26
67740;BME280;54536;50.090;14.420;2022-12-04T10:27:29;99504.28;;;9.64;64.63
67740;BME280;54536;50.090;14.420;2022-12-04T10:30:19;99499.63;;;9.47;64.39
67740;BME280;54536;50.090;14.420;2022-12-04T10:32:48;99491.03;;;9.45;64.08
67740;BME280;54536;50.090;14.420;2022-12-04T10:35:30;99492.47;;;9.49;64.27
67740;BME280;54536;50.090;14.420;2022-12-04T10:38:03;99492.66;;;9.57;63.41
67740;BME280;54536;50.090;14.420;2022-12-04T10:45:48;99482.47;;;9.64;65.57
67740;BME280;54536;50.090;14.420;2022-12-04T10:48:34;99485.41;;;9.70;63.93
67740;BME280;54536;50.090;14.420;2022-12-04T10:51:19;99482.09;;;9.68;64.08
67740;BME280;54536;50.090;14.420;2022-12-04T10:53:47;99480.72;;;9.74;65.34
67740;BME280;54536;50.090;14.420;2022-12-04T10:56:18;99480.97;;;9.71;63.30
67740;BME280;54536;50.090;14.420;2022-12-04T10:59:02;99480.66;;;9.64;63.50
67740;BME280;54536;50.090;14.420;2022-12-04T11:01:31;99474.53;;;9.75;63.88
67740;BME280;54536;50.090;14.420;2022-12-04T11:04:07;99481.31;;;9.77;64.30
67740;BME280;54536;50.090;14.420;2022-12-04T11:06:35;99475.72;;;9.71;63.60
67740;BME280;54536;50.090;14.420;2022-12-04T11:09:04;99474.53;;;9.75;63.32
67740;BME280;54536;50.090;14.420;2022-12-04T11:11:33;99472.59;;;9.77;62.95
67740;BME280;54536;50.090;14.420;2022-12-04T11:14:17;99466.16;;;9.81;63.34
67740;BME280;54536;50.090;14.420;2022-12-04T11:16:47;99467.22;;;9.78;63.25
67740;BME280;54536;50.090;14.420;2022-12-04T11:19:26;99466.72;;;9.84;63.06
67740;BME280;54536;50.090;14.420;2022-12-04T11:21:56;99457.22;;;9.93;62.78
67740;BME280;54536;50.090;14.420;2022-12-04T11:24:28;99463.53;;;9.91;62.63
67740;BME280;54536;50.090;14.420;2022-12-04T11:26:56;99463.28;;;9.94;62.56
67740;BME280;54536;50.090;14.420;2022-12-04T11:29:37;99458.75;;;9.96;62.22
67740;BME280;54536;50.090;14.420;2022-12-04T11:32:21;99452.00;;;9.72;62.97
67740;BME280;54536;50.090;14.420;2022-12-04T11:34:53;99445.81;;;9.83;63.47
67740;BME280;54536;50.090;14.420;2022-12-04T11:37:28;99437.53;;;9.78;62.61
67740;BME280;54536;50.090;14.420;2022-12-04T11:39:59;99445.97;;;9.81;63.28
67740;BME280;54536;50.090;14.420;2022-12-04T11:42:30;99444.22;;;9.92;62.90
67740;BME280;54536;50.090;14.420;2022-12-04T11:45:21;99452.63;;;9.85;62.29
67740;BME280;54536;50.090;14.420;2022-12-04T11:47:59;99449.31;;;9.93;62.21
67740;BME280;54536;50.090;14.420;2022-12-04T12:09:58;99427.94;;;9.98;62.29
67740;BME280;54536;50.090;14.420;2022-12-04T12:20:35;99432.38;;;9.97;61.60
67740;BME280;54536;50.090;14.420;2022-12-04T12:34:34;99412.63;;;10.13;62.23
67740;BME280;54536;50.090;14.420;2022-12-04T12:40:35;99410.25;;;10.09;61.57
67740;BME280;54536;50.090;14.420;2022-12-04T12:43:10;99409.03;;;10.04;62.47
67740;BME280;54536;50.090;14.420;2022-12-04T12:51:01;99407.63;;;10.09;61.59
67740;BME280;54536;50.090;14.420;2022-12-04T12:53:39;99412.06;;;10.09;61.99
67740;BME280;54536;50.090;14.420;2022-12-04T12:56:10;99401.81;;;10.06;61.84
67740;BME280;54536;50.090;14.420;2022-12-04T12:58:48;99399.34;;;10.04;62.10
67740;BME280;54536;50.090;14.420;2022-12-04T13:04:42;99403.50;;;10.17;62.80
67740;BME280;54536;50.090;14.420;2022-12-04T13:07:25;99407.38;;;10.13;61.63
67740;BME280;54536;50.090;14.420;2022-12-04T13:10:02;99401.31;;;10.22;61.50
67740;BME280;54536;50.090;14.420;2022-12-04T13:12:46;99397.03;;;10.21;61.50
67740;BME280;54536;50.090;14.420;2022-12-04T13:15:25;99402.88;;;10.24;60.87
67740;BME280;54536;50.090;14.420;2022-12-04T13:17:58;99401.88;;;10.25;61.29
67740;BME280;54536;50.090;14.420;2022-12-04T13:20:31;99394.78;;;10.06;61.79
67740;BME280;54536;50.090;14.420;2022-12-04T13:31:13;99390.94;;;10.11;61.36
67740;BME280;54536;50.090;14.420;2022-12-04T13:36:51;99391.06;;;10.09;61.92
67740;BME280;54536;50.090;14.420;2022-12-04T13:42:26;99404.06;;;10.11;61.78
67740;BME280;54536;50.090;14.420;2022-12-04T13:44:58;99402.66;;;10.06;61.44
67740;BME280;54536;50.090;14.420;2022-12-04T13:47:32;99394.31;;;9.92;61.91
67740;BME280;54536;50.090;14.420;2022-12-04T13:52:41;99402.03;;;9.93;62.15
67740;BME280;54536;50.090;14.420;2022-12-04T13:55:33;99393.94;;;10.06;61.40
67740;BME280;54536;50.090;14.420;2022-12-04T14:00:39;99382.63;;;10.15;61.28
67740;BME280;54536;50.090;14.420;2022-12-04T14:03:38;99376.81;;;10.12;61.49
67740;BME280;54536;50.090;14.420;2022-12-04T14:06:41;99379.16;;;10.05;61.27
67740;BME280;54536;50.090;14.420;2022-12-04T14:09:23;99379.72;;;10.08;61.35
67740;BME280;54536;50.090;14.420;2022-12-04T14:11:58;99376.22;;;9.98;61.61
67740;BME280;54536;50.090;14.420;2022-12-04T14:15:06;99378.44;;;10.03;61.39
67740;BME280;54536;50.090;14.420;2022-12-04T14:17:37;99378.44;;;10.03;60.99
67740;BME280;54536;50.090;14.420;2022-12-04T14:20:22;99374.84;;;9.94;61.49
67740;BME280;54536;50.090;14.420;2022-12-04T14:23:22;99377.47;;;9.94;60.71
67740;BME280;54536;50.090;14.420;2022-12-04T14:25:53;99374.38;;;9.89;61.01
67740;BME280;54536;50.090;14.420;2022-12-04T14:28:37;99388.34;;;9.90;61.18
67740;BME280;54536;50.090;14.420;2022-12-04T14:33:54;99382.00;;;9.92;60.64
67740;BME280;54536;50.090;14.420;2022-12-04T14:36:34;99386.25;;;9.83;61.41
67740;BME280;54536;50.090;14.420;2022-12-04T14:39:06;99380.31;;;9.81;61.74
67740;BME280;54536;50.090;14.420;2022-12-04T14:41:38;99375.38;;;9.88;60.77
67740;BME280;54536;50.090;14.420;2022-12-04T14:44:06;99372.84;;;9.87;60.85
67740;BME280;54536;50.090;14.420;2022-12-04T14:46:50;99372.03;;;9.86;60.57
67740;BME280;54536;50.090;14.420;2022-12-04T14:51:58;99375.75;;;9.83;61.15
67740;BME280;54536;50.090;14.420;2022-12-04T14:59:53;99363.91;;;9.99;60.72
67740;BME280;54536;50.090;14.420;2022-12-04T15:02:40;99373.41;;;9.90;60.51
67740;BME280;54536;50.090;14.420;2022-12-04T15:05:23;99375.47;;;9.87;60.70
67740;BME280;54536;50.090;14.420;2022-12-04T15:07:55;99378.31;;;9.74;60.35
67740;BME280;54536;50.090;14.420;2022-12-04T15:10:28;99383.34;;;9.87;61.11
67740;BME280;54536;50.090;14.420;2022-12-04T15:13:34;99375.88;;;9.82;60.60
67740;BME280;54536;50.090;14.420;2022-12-04T15:16:16;99372.91;;;9.66;61.13
67740;BME280;54536;50.090;14.420;2022-12-04T15:18:56;99376.84;;;9.81;60.90
67740;BME280;54536;50.090;14.420;2022-12-04T15:21:36;99387.06;;;9.84;60.92
67740;BME280;54536;50.090;14.420;2022-12-04T15:24:10;99382.63;;;9.75;60.58
67740;BME280;54536;50.090;14.420;2022-12-04T15:26:47;99372.91;;;9.66;60.34
67740;BME280;54536;50.090;14.420;2022-12-04T15:29:22;99374.75;;;9.75;60.35
67740;BME280;54536;50.090;14.420;2022-12-04T15:32:02;99376.25;;;9.77;60.99
67740;BME280;54536;50.090;14.420;2022-12-04T15:34:41;99377.50;;;9.73;60.87
67740;BME280;54536;50.090;14.420;2022-12-04T15:37:21;99371.97;;;9.76;60.80
67740;BME280;54536;50.090;14.420;2022-12-04T15:39:49;99376.84;;;9.81;60.04
67740;BME280;54536;50.090;14.420;2022-12-04T15:42:26;99361.94;;;9.81;60.57
67740;BME280;54536;50.090;14.420;2022-12-04T15:55:25;99357.56;;;9.71;60.62
67740;BME280;54536;50.090;14.420;2022-12-04T15:58:06;99353.59;;;9.76;59.86
67740;BME280;54536;50.090;14.420;2022-12-04T16:01:10;99351.09;;;9.65;60.67